sensor_id;sensor_type;location;lat;lon;timestamp;P1;durP1;ratioP1;P2;durP2;ratioP2
55589;SDS011;41452;42.780;23.116;2023-05-28T00:00:48;5.35;;;3.17;;
55589;SDS011;41452;42.780;23.116;2023-05-28T00:03:14;5.47;;;3.60;;
55589;SDS011;41452;42.780;23.116;2023-05-28T00:05:44;6.70;;;3.22;;
55589;SDS011;41452;42.780;23.116;2023-05-28T00:08:10;5.70;;;3.28;;
55589;SDS011;41452;42.780;23.116;2023-05-28T00:10:35;4.47;;;3.10;;
55589;SDS011;41452;42.780;23.116;2023-05-28T00:13:00;8.45;;;2.90;;
55589;SDS011;41452;42.780;23.116;2023-05-28T00:15:26;5.30;;;3.50;;
55589;SDS011;41452;42.780;23.116;2023-05-28T00:17:51;5.15;;;3.20;;
55589;SDS011;41452;42.780;23.116;2023-05-28T00:20:33;6.32;;;3.25;;
55589;SDS011;41452;42.780;23.116;2023-05-28T00:22:58;4.70;;;3.30;;
55589;SDS011;41452;42.780;23.116;2023-05-28T00:25:31;4.97;;;3.10;;
55589;SDS011;41452;42.780;23.116;2023-05-28T00:27:59;5.05;;;3.22;;
55589;SDS011;41452;42.780;23.116;2023-05-28T00:30:25;3.95;;;2.83;;
55589;SDS011;41452;42.780;23.116;2023-05-28T00:32:50;6.22;;;3.45;;
55589;SDS011;41452;42.780;23.116;2023-05-28T00:35:16;5.88;;;3.85;;
55589;SDS011;41452;42.780;23.116;2023-05-28T00:37:41;7.03;;;3.50;;
55589;SDS011;41452;42.780;23.116;2023-05-28T00:40:07;6.07;;;3.63;;
55589;SDS011;41452;42.780;23.116;2023-05-28T00:42:34;4.85;;;3.70;;
55589;SDS011;41452;42.780;23.116;2023-05-28T00:45:00;3.97;;;3.03;;
55589;SDS011;41452;42.780;23.116;2023-05-28T00:47:26;4.57;;;2.88;;
55589;SDS011;41452;42.780;23.116;2023-05-28T00:49:51;4.22;;;2.80;;
55589;SDS011;41452;42.780;23.116;2023-05-28T00:52:20;6.00;;;3.70;;
55589;SDS011;41452;42.780;23.116;2023-05-28T00:54:46;6.30;;;3.67;;
55589;SDS011;41452;42.780;23.116;2023-05-28T00:57:14;4.57;;;3.28;;
55589;SDS011;41452;42.780;23.116;2023-05-28T00:59:40;6.22;;;3.08;;
55589;SDS011;41452;42.780;23.116;2023-05-28T01:02:06;6.82;;;3.28;;
55589;SDS011;41452;42.780;23.116;2023-05-28T01:04:31;6.97;;;3.47;;
55589;SDS011;41452;42.780;23.116;2023-05-28T01:06:57;4.10;;;2.92;;
55589;SDS011;41452;42.780;23.116;2023-05-28T01:09:24;5.03;;;3.25;;
55589;SDS011;41452;42.780;23.116;2023-05-28T01:11:50;5.32;;;3.95;;
55589;SDS011;41452;42.780;23.116;2023-05-28T01:14:18;6.57;;;4.13;;
55589;SDS011;41452;42.780;23.116;2023-05-28T01:16:44;5.65;;;3.75;;
55589;SDS011;41452;42.780;23.116;2023-05-28T01:19:11;4.78;;;3.35;;
55589;SDS011;41452;42.780;23.116;2023-05-28T01:21:41;12.85;;;3.72;;
55589;SDS011;41452;42.780;23.116;2023-05-28T01:24:09;4.72;;;3.30;;
55589;SDS011;41452;42.780;23.116;2023-05-28T01:26:38;7.38;;;3.75;;
55589;SDS011;41452;42.780;23.116;2023-05-28T01:29:15;5.97;;;3.70;;
55589;SDS011;41452;42.780;23.116;2023-05-28T01:31:41;6.90;;;3.50;;
55589;SDS011;41452;42.780;23.116;2023-05-28T01:34:07;6.57;;;3.80;;
55589;SDS011;41452;42.780;23.116;2023-05-28T01:36:34;6.18;;;3.70;;
55589;SDS011;41452;42.780;23.116;2023-05-28T01:39:02;6.65;;;3.72;;
55589;SDS011;41452;42.780;23.116;2023-05-28T01:41:29;6.90;;;3.55;;
55589;SDS011;41452;42.780;23.116;2023-05-28T01:43:55;6.70;;;3.28;;
55589;SDS011;41452;42.780;23.116;2023-05-28T01:46:21;7.20;;;3.80;;
55589;SDS011;41452;42.780;23.116;2023-05-28T01:48:47;15.55;;;4.35;;
55589;SDS011;41452;42.780;23.116;2023-05-28T01:51:15;5.85;;;3.80;;
55589;SDS011;41452;42.780;23.116;2023-05-28T01:53:50;6.88;;;3.67;;
55589;SDS011;41452;42.780;23.116;2023-05-28T01:56:16;10.18;;;4.13;;
55589;SDS011;41452;42.780;23.116;2023-05-28T01:58:42;7.60;;;4.28;;
55589;SDS011;41452;42.780;23.116;2023-05-28T02:01:14;4.30;;;3.45;;
55589;SDS011;41452;42.780;23.116;2023-05-28T02:03:41;5.97;;;3.90;;
55589;SDS011;41452;42.780;23.116;2023-05-28T02:06:07;5.15;;;3.63;;
55589;SDS011;41452;42.780;23.116;2023-05-28T02:08:32;8.27;;;4.00;;
55589;SDS011;41452;42.780;23.116;2023-05-28T02:10:57;5.30;;;3.55;;
55589;SDS011;41452;42.780;23.116;2023-05-28T02:13:23;8.35;;;4.32;;
55589;SDS011;41452;42.780;23.116;2023-05-28T02:15:48;6.28;;;3.92;;
55589;SDS011;41452;42.780;23.116;2023-05-28T02:18:13;8.23;;;3.92;;
55589;SDS011;41452;42.780;23.116;2023-05-28T02:20:41;5.68;;;3.58;;
55589;SDS011;41452;42.780;23.116;2023-05-28T02:23:07;7.28;;;4.18;;
55589;SDS011;41452;42.780;23.116;2023-05-28T02:25:32;5.70;;;4.22;;
55589;SDS011;41452;42.780;23.116;2023-05-28T02:27:57;5.85;;;4.10;;
55589;SDS011;41452;42.780;23.116;2023-05-28T02:30:23;6.72;;;4.50;;
55589;SDS011;41452;42.780;23.116;2023-05-28T02:32:48;6.32;;;3.63;;
55589;SDS011;41452;42.780;23.116;2023-05-28T02:35:14;7.53;;;3.88;;
55589;SDS011;41452;42.780;23.116;2023-05-28T02:37:40;5.93;;;4.10;;
55589;SDS011;41452;42.780;23.116;2023-05-28T02:40:06;7.45;;;4.55;;
55589;SDS011;41452;42.780;23.116;2023-05-28T02:42:34;7.35;;;4.68;;
55589;SDS011;41452;42.780;23.116;2023-05-28T02:45:00;7.10;;;4.35;;
55589;SDS011;41452;42.780;23.116;2023-05-28T02:47:25;5.78;;;3.90;;
55589;SDS011;41452;42.780;23.116;2023-05-28T02:49:50;8.73;;;4.53;;
55589;SDS011;41452;42.780;23.116;2023-05-28T02:52:16;9.30;;;4.53;;
55589;SDS011;41452;42.780;23.116;2023-05-28T02:54:41;6.10;;;3.92;;
55589;SDS011;41452;42.780;23.116;2023-05-28T02:57:07;6.45;;;3.90;;
55589;SDS011;41452;42.780;23.116;2023-05-28T02:59:32;5.32;;;3.70;;
55589;SDS011;41452;42.780;23.116;2023-05-28T03:01:57;6.38;;;4.30;;
55589;SDS011;41452;42.780;23.116;2023-05-28T03:04:25;5.97;;;4.13;;
55589;SDS011;41452;42.780;23.116;2023-05-28T03:06:50;5.95;;;4.15;;
55589;SDS011;41452;42.780;23.116;2023-05-28T03:09:15;8.32;;;4.38;;
55589;SDS011;41452;42.780;23.116;2023-05-28T03:11:41;5.25;;;3.78;;
55589;SDS011;41452;42.780;23.116;2023-05-28T03:14:07;9.48;;;4.30;;
55589;SDS011;41452;42.780;23.116;2023-05-28T03:16:32;8.20;;;4.53;;
55589;SDS011;41452;42.780;23.116;2023-05-28T03:18:58;7.15;;;4.18;;
55589;SDS011;41452;42.780;23.116;2023-05-28T03:21:23;7.05;;;4.60;;
55589;SDS011;41452;42.780;23.116;2023-05-28T03:23:48;8.40;;;4.22;;
55589;SDS011;41452;42.780;23.116;2023-05-28T03:26:14;7.32;;;3.95;;
55589;SDS011;41452;42.780;23.116;2023-05-28T03:28:39;7.35;;;4.60;;
55589;SDS011;41452;42.780;23.116;2023-05-28T03:31:05;8.07;;;3.92;;
55589;SDS011;41452;42.780;23.116;2023-05-28T03:33:30;5.80;;;3.90;;
55589;SDS011;41452;42.780;23.116;2023-05-28T03:35:55;6.40;;;4.00;;
55589;SDS011;41452;42.780;23.116;2023-05-28T03:38:21;11.48;;;4.60;;
55589;SDS011;41452;42.780;23.116;2023-05-28T03:40:46;6.22;;;3.67;;
55589;SDS011;41452;42.780;23.116;2023-05-28T03:43:12;9.80;;;4.88;;
55589;SDS011;41452;42.780;23.116;2023-05-28T03:45:37;5.10;;;3.63;;
55589;SDS011;41452;42.780;23.116;2023-05-28T03:48:02;6.10;;;3.70;;
55589;SDS011;41452;42.780;23.116;2023-05-28T03:50:28;7.22;;;4.47;;
55589;SDS011;41452;42.780;23.116;2023-05-28T03:52:53;6.25;;;3.45;;
55589;SDS011;41452;42.780;23.116;2023-05-28T03:55:18;8.18;;;4.50;;
55589;SDS011;41452;42.780;23.116;2023-05-28T03:57:44;5.70;;;4.03;;
55589;SDS011;41452;42.780;23.116;2023-05-28T04:00:09;5.15;;;3.83;;
55589;SDS011;41452;42.780;23.116;2023-05-28T04:02:35;7.25;;;4.70;;
55589;SDS011;41452;42.780;23.116;2023-05-28T04:05:01;8.00;;;4.13;;
55589;SDS011;41452;42.780;23.116;2023-05-28T04:07:27;6.70;;;4.10;;
55589;SDS011;41452;42.780;23.116;2023-05-28T04:09:52;7.80;;;4.35;;
55589;SDS011;41452;42.780;23.116;2023-05-28T04:12:17;6.60;;;4.10;;
55589;SDS011;41452;42.780;23.116;2023-05-28T04:14:43;6.38;;;4.22;;
55589;SDS011;41452;42.780;23.116;2023-05-28T04:17:08;6.00;;;4.00;;
55589;SDS011;41452;42.780;23.116;2023-05-28T04:19:36;6.93;;;4.05;;
55589;SDS011;41452;42.780;23.116;2023-05-28T04:22:02;6.03;;;3.92;;
55589;SDS011;41452;42.780;23.116;2023-05-28T04:24:28;7.55;;;4.35;;
55589;SDS011;41452;42.780;23.116;2023-05-28T04:26:53;11.38;;;4.70;;
55589;SDS011;41452;42.780;23.116;2023-05-28T04:29:19;6.18;;;4.18;;
55589;SDS011;41452;42.780;23.116;2023-05-28T04:31:48;7.18;;;4.28;;
55589;SDS011;41452;42.780;23.116;2023-05-28T04:34:14;9.15;;;4.35;;
55589;SDS011;41452;42.780;23.116;2023-05-28T04:36:43;8.40;;;4.90;;
55589;SDS011;41452;42.780;23.116;2023-05-28T04:39:09;7.47;;;4.88;;
55589;SDS011;41452;42.780;23.116;2023-05-28T04:41:35;6.55;;;4.57;;
55589;SDS011;41452;42.780;23.116;2023-05-28T04:44:00;6.18;;;3.88;;
55589;SDS011;41452;42.780;23.116;2023-05-28T04:46:25;8.75;;;3.95;;
55589;SDS011;41452;42.780;23.116;2023-05-28T04:48:54;5.85;;;4.55;;
55589;SDS011;41452;42.780;23.116;2023-05-28T04:51:20;7.55;;;3.97;;
55589;SDS011;41452;42.780;23.116;2023-05-28T04:53:46;6.57;;;3.53;;
55589;SDS011;41452;42.780;23.116;2023-05-28T04:56:12;5.57;;;3.83;;
55589;SDS011;41452;42.780;23.116;2023-05-28T04:58:39;5.20;;;3.85;;
55589;SDS011;41452;42.780;23.116;2023-05-28T05:01:05;7.50;;;5.57;;
55589;SDS011;41452;42.780;23.116;2023-05-28T05:03:33;6.43;;;4.32;;
55589;SDS011;41452;42.780;23.116;2023-05-28T05:05:59;8.10;;;5.35;;
55589;SDS011;41452;42.780;23.116;2023-05-28T05:08:24;7.45;;;4.28;;
55589;SDS011;41452;42.780;23.116;2023-05-28T05:10:50;9.38;;;4.75;;
55589;SDS011;41452;42.780;23.116;2023-05-28T05:13:16;7.47;;;4.47;;
55589;SDS011;41452;42.780;23.116;2023-05-28T05:15:41;7.25;;;4.85;;
55589;SDS011;41452;42.780;23.116;2023-05-28T05:18:07;6.65;;;4.65;;
55589;SDS011;41452;42.780;23.116;2023-05-28T05:20:32;5.60;;;4.18;;
55589;SDS011;41452;42.780;23.116;2023-05-28T05:22:57;7.63;;;5.20;;
55589;SDS011;41452;42.780;23.116;2023-05-28T05:25:23;6.07;;;4.43;;
55589;SDS011;41452;42.780;23.116;2023-05-28T05:27:49;7.00;;;4.47;;
55589;SDS011;41452;42.780;23.116;2023-05-28T05:30:15;6.10;;;4.68;;
55589;SDS011;41452;42.780;23.116;2023-05-28T05:32:41;6.93;;;4.72;;
55589;SDS011;41452;42.780;23.116;2023-05-28T05:35:06;11.55;;;5.88;;
55589;SDS011;41452;42.780;23.116;2023-05-28T05:37:32;9.65;;;5.45;;
55589;SDS011;41452;42.780;23.116;2023-05-28T05:39:57;13.02;;;5.10;;
55589;SDS011;41452;42.780;23.116;2023-05-28T05:42:23;8.05;;;4.75;;
55589;SDS011;41452;42.780;23.116;2023-05-28T05:44:48;8.52;;;4.90;;
55589;SDS011;41452;42.780;23.116;2023-05-28T05:47:13;7.60;;;5.32;;
55589;SDS011;41452;42.780;23.116;2023-05-28T05:49:39;9.93;;;5.30;;
55589;SDS011;41452;42.780;23.116;2023-05-28T05:52:05;14.65;;;8.52;;
55589;SDS011;41452;42.780;23.116;2023-05-28T05:54:30;12.15;;;6.93;;
55589;SDS011;41452;42.780;23.116;2023-05-28T05:56:56;13.52;;;6.57;;
55589;SDS011;41452;42.780;23.116;2023-05-28T05:59:21;8.70;;;5.40;;
55589;SDS011;41452;42.780;23.116;2023-05-28T06:01:47;8.20;;;5.05;;
55589;SDS011;41452;42.780;23.116;2023-05-28T06:04:12;8.27;;;5.28;;
55589;SDS011;41452;42.780;23.116;2023-05-28T06:06:38;8.20;;;5.15;;
55589;SDS011;41452;42.780;23.116;2023-05-28T06:09:04;8.05;;;5.38;;
55589;SDS011;41452;42.780;23.116;2023-05-28T06:11:29;8.45;;;4.80;;
55589;SDS011;41452;42.780;23.116;2023-05-28T06:13:55;8.38;;;4.97;;
55589;SDS011;41452;42.780;23.116;2023-05-28T06:16:20;11.70;;;5.88;;
55589;SDS011;41452;42.780;23.116;2023-05-28T06:18:46;6.18;;;3.97;;
55589;SDS011;41452;42.780;23.116;2023-05-28T06:21:12;5.60;;;4.30;;
55589;SDS011;41452;42.780;23.116;2023-05-28T06:23:37;8.65;;;4.53;;
55589;SDS011;41452;42.780;23.116;2023-05-28T06:26:03;8.40;;;3.78;;
55589;SDS011;41452;42.780;23.116;2023-05-28T06:28:30;5.85;;;4.10;;
55589;SDS011;41452;42.780;23.116;2023-05-28T06:30:56;7.35;;;4.53;;
55589;SDS011;41452;42.780;23.116;2023-05-28T06:33:21;7.65;;;4.60;;
55589;SDS011;41452;42.780;23.116;2023-05-28T06:35:47;9.15;;;4.45;;
55589;SDS011;41452;42.780;23.116;2023-05-28T06:38:12;6.05;;;3.65;;
55589;SDS011;41452;42.780;23.116;2023-05-28T06:40:38;7.00;;;4.18;;
55589;SDS011;41452;42.780;23.116;2023-05-28T06:43:04;4.95;;;3.60;;
55589;SDS011;41452;42.780;23.116;2023-05-28T06:45:29;6.22;;;4.15;;
55589;SDS011;41452;42.780;23.116;2023-05-28T06:47:57;7.65;;;4.13;;
55589;SDS011;41452;42.780;23.116;2023-05-28T06:50:23;9.88;;;5.10;;
55589;SDS011;41452;42.780;23.116;2023-05-28T06:52:48;8.02;;;4.60;;
55589;SDS011;41452;42.780;23.116;2023-05-28T06:55:14;6.53;;;4.50;;
55589;SDS011;41452;42.780;23.116;2023-05-28T06:57:39;5.68;;;4.15;;
55589;SDS011;41452;42.780;23.116;2023-05-28T07:00:05;7.60;;;4.68;;
55589;SDS011;41452;42.780;23.116;2023-05-28T07:02:38;6.72;;;4.55;;
55589;SDS011;41452;42.780;23.116;2023-05-28T07:05:04;5.30;;;3.65;;
55589;SDS011;41452;42.780;23.116;2023-05-28T07:07:30;6.40;;;4.15;;
55589;SDS011;41452;42.780;23.116;2023-05-28T07:09:56;5.82;;;4.07;;
55589;SDS011;41452;42.780;23.116;2023-05-28T07:12:21;7.07;;;4.32;;
55589;SDS011;41452;42.780;23.116;2023-05-28T07:14:47;7.78;;;4.13;;
55589;SDS011;41452;42.780;23.116;2023-05-28T07:17:12;8.63;;;4.63;;
55589;SDS011;41452;42.780;23.116;2023-05-28T07:19:37;5.70;;;4.05;;
55589;SDS011;41452;42.780;23.116;2023-05-28T07:22:03;8.05;;;3.53;;
55589;SDS011;41452;42.780;23.116;2023-05-28T07:24:28;7.50;;;3.90;;
55589;SDS011;41452;42.780;23.116;2023-05-28T07:26:54;7.30;;;4.30;;
55589;SDS011;41452;42.780;23.116;2023-05-28T07:29:19;8.45;;;3.63;;
55589;SDS011;41452;42.780;23.116;2023-05-28T07:31:45;6.50;;;4.60;;
55589;SDS011;41452;42.780;23.116;2023-05-28T07:34:10;7.45;;;3.83;;
55589;SDS011;41452;42.780;23.116;2023-05-28T07:36:36;7.63;;;4.10;;
55589;SDS011;41452;42.780;23.116;2023-05-28T07:39:03;9.43;;;4.18;;
55589;SDS011;41452;42.780;23.116;2023-05-28T07:41:29;6.15;;;4.07;;
55589;SDS011;41452;42.780;23.116;2023-05-28T07:43:55;6.10;;;4.28;;
55589;SDS011;41452;42.780;23.116;2023-05-28T07:46:20;6.88;;;3.50;;
55589;SDS011;41452;42.780;23.116;2023-05-28T07:48:49;7.80;;;3.15;;
55589;SDS011;41452;42.780;23.116;2023-05-28T07:51:15;8.07;;;3.10;;
55589;SDS011;41452;42.780;23.116;2023-05-28T07:53:40;6.18;;;3.08;;
55589;SDS011;41452;42.780;23.116;2023-05-28T07:56:06;5.07;;;3.05;;
55589;SDS011;41452;42.780;23.116;2023-05-28T07:58:32;5.78;;;2.88;;
55589;SDS011;41452;42.780;23.116;2023-05-28T08:00:57;5.10;;;2.75;;
55589;SDS011;41452;42.780;23.116;2023-05-28T08:03:23;4.15;;;2.75;;
55589;SDS011;41452;42.780;23.116;2023-05-28T08:05:52;6.03;;;2.88;;
55589;SDS011;41452;42.780;23.116;2023-05-28T08:08:17;7.80;;;3.20;;
55589;SDS011;41452;42.780;23.116;2023-05-28T08:10:43;4.10;;;2.65;;
55589;SDS011;41452;42.780;23.116;2023-05-28T08:13:08;3.70;;;2.75;;
55589;SDS011;41452;42.780;23.116;2023-05-28T08:15:33;9.02;;;3.30;;
55589;SDS011;41452;42.780;23.116;2023-05-28T08:17:59;3.95;;;2.63;;
55589;SDS011;41452;42.780;23.116;2023-05-28T08:20:24;5.43;;;2.60;;
55589;SDS011;41452;42.780;23.116;2023-05-28T08:22:50;6.10;;;3.20;;
55589;SDS011;41452;42.780;23.116;2023-05-28T08:25:15;4.35;;;2.53;;
55589;SDS011;41452;42.780;23.116;2023-05-28T08:27:40;6.97;;;3.58;;
55589;SDS011;41452;42.780;23.116;2023-05-28T08:30:06;6.55;;;3.22;;
55589;SDS011;41452;42.780;23.116;2023-05-28T08:32:32;4.60;;;3.10;;
55589;SDS011;41452;42.780;23.116;2023-05-28T08:34:58;4.25;;;2.47;;
55589;SDS011;41452;42.780;23.116;2023-05-28T08:37:23;4.43;;;2.70;;
55589;SDS011;41452;42.780;23.116;2023-05-28T08:39:48;3.70;;;2.20;;
55589;SDS011;41452;42.780;23.116;2023-05-28T08:42:14;6.10;;;3.53;;
55589;SDS011;41452;42.780;23.116;2023-05-28T08:44:39;6.75;;;2.67;;
55589;SDS011;41452;42.780;23.116;2023-05-28T08:47:05;5.22;;;2.80;;
55589;SDS011;41452;42.780;23.116;2023-05-28T08:49:32;3.60;;;2.22;;
55589;SDS011;41452;42.780;23.116;2023-05-28T08:52:15;3.83;;;2.40;;
55589;SDS011;41452;42.780;23.116;2023-05-28T08:54:44;4.60;;;2.83;;
55589;SDS011;41452;42.780;23.116;2023-05-28T08:57:11;4.13;;;2.75;;
55589;SDS011;41452;42.780;23.116;2023-05-28T08:59:36;8.60;;;2.70;;
55589;SDS011;41452;42.780;23.116;2023-05-28T09:02:05;5.65;;;3.03;;
55589;SDS011;41452;42.780;23.116;2023-05-28T09:04:32;3.97;;;2.20;;
55589;SDS011;41452;42.780;23.116;2023-05-28T09:06:58;5.18;;;2.58;;
55589;SDS011;41452;42.780;23.116;2023-05-28T09:09:23;4.07;;;2.20;;
55589;SDS011;41452;42.780;23.116;2023-05-28T09:11:49;4.72;;;2.55;;
55589;SDS011;41452;42.780;23.116;2023-05-28T09:14:16;5.13;;;2.88;;
55589;SDS011;41452;42.780;23.116;2023-05-28T09:16:43;6.18;;;3.20;;
55589;SDS011;41452;42.780;23.116;2023-05-28T09:19:09;6.05;;;3.38;;
55589;SDS011;41452;42.780;23.116;2023-05-28T09:21:36;5.63;;;3.35;;
55589;SDS011;41452;42.780;23.116;2023-05-28T09:24:03;4.82;;;3.30;;
55589;SDS011;41452;42.780;23.116;2023-05-28T09:26:29;6.35;;;3.78;;
55589;SDS011;41452;42.780;23.116;2023-05-28T09:28:56;5.45;;;3.63;;
55589;SDS011;41452;42.780;23.116;2023-05-28T09:31:27;5.15;;;3.30;;
55589;SDS011;41452;42.780;23.116;2023-05-28T09:33:59;6.15;;;3.70;;
55589;SDS011;41452;42.780;23.116;2023-05-28T09:36:28;4.97;;;3.38;;
55589;SDS011;41452;42.780;23.116;2023-05-28T09:38:55;4.65;;;3.25;;
55589;SDS011;41452;42.780;23.116;2023-05-28T09:41:22;6.45;;;3.65;;
55589;SDS011;41452;42.780;23.116;2023-05-28T09:43:55;4.75;;;3.25;;
55589;SDS011;41452;42.780;23.116;2023-05-28T09:46:31;9.20;;;3.42;;
55589;SDS011;41452;42.780;23.116;2023-05-28T09:48:58;5.65;;;3.38;;
55589;SDS011;41452;42.780;23.116;2023-05-28T09:51:24;5.05;;;2.83;;
55589;SDS011;41452;42.780;23.116;2023-05-28T09:53:55;5.60;;;3.22;;
55589;SDS011;41452;42.780;23.116;2023-05-28T09:56:32;9.90;;;3.20;;
55589;SDS011;41452;42.780;23.116;2023-05-28T09:58:59;5.07;;;3.30;;
55589;SDS011;41452;42.780;23.116;2023-05-28T10:01:35;4.32;;;2.55;;
55589;SDS011;41452;42.780;23.116;2023-05-28T10:04:08;3.50;;;2.33;;
55589;SDS011;41452;42.780;23.116;2023-05-28T10:06:38;4.10;;;2.03;;
55589;SDS011;41452;42.780;23.116;2023-05-28T10:09:05;2.85;;;1.67;;
55589;SDS011;41452;42.780;23.116;2023-05-28T10:11:36;2.97;;;1.90;;
55589;SDS011;41452;42.780;23.116;2023-05-28T10:14:08;3.35;;;2.08;;
55589;SDS011;41452;42.780;23.116;2023-05-28T10:16:35;4.30;;;2.10;;
55589;SDS011;41452;42.780;23.116;2023-05-28T10:19:02;3.47;;;2.13;;
55589;SDS011;41452;42.780;23.116;2023-05-28T10:21:27;5.15;;;2.20;;
55589;SDS011;41452;42.780;23.116;2023-05-28T10:23:53;4.28;;;1.95;;
55589;SDS011;41452;42.780;23.116;2023-05-28T10:26:20;5.07;;;2.30;;
55589;SDS011;41452;42.780;23.116;2023-05-28T10:28:52;5.72;;;2.70;;
55589;SDS011;41452;42.780;23.116;2023-05-28T10:31:20;5.32;;;2.05;;
55589;SDS011;41452;42.780;23.116;2023-05-28T10:33:46;4.00;;;2.33;;
55589;SDS011;41452;42.780;23.116;2023-05-28T10:36:13;3.67;;;2.20;;
55589;SDS011;41452;42.780;23.116;2023-05-28T10:38:56;8.93;;;2.65;;
55589;SDS011;41452;42.780;23.116;2023-05-28T10:41:23;6.37;;;2.27;;
55589;SDS011;41452;42.780;23.116;2023-05-28T10:43:52;4.03;;;2.15;;
55589;SDS011;41452;42.780;23.116;2023-05-28T10:51:56;4.20;;;2.10;;
55589;SDS011;41452;42.780;23.116;2023-05-28T10:59:46;3.97;;;2.50;;
55589;SDS011;41452;42.780;23.116;2023-05-28T11:02:27;4.55;;;2.47;;
55589;SDS011;41452;42.780;23.116;2023-05-28T11:04:54;3.50;;;2.50;;
55589;SDS011;41452;42.780;23.116;2023-05-28T11:07:28;3.78;;;2.15;;
55589;SDS011;41452;42.780;23.116;2023-05-28T11:09:55;3.65;;;2.15;;
55589;SDS011;41452;42.780;23.116;2023-05-28T11:12:22;4.32;;;2.40;;
55589;SDS011;41452;42.780;23.116;2023-05-28T11:14:48;4.22;;;2.58;;
55589;SDS011;41452;42.780;23.116;2023-05-28T11:17:15;3.17;;;2.10;;
55589;SDS011;41452;42.780;23.116;2023-05-28T11:22:15;8.07;;;2.67;;
55589;SDS011;41452;42.780;23.116;2023-05-28T11:27:31;4.28;;;2.70;;
55589;SDS011;41452;42.780;23.116;2023-05-28T11:30:00;12.52;;;3.53;;
55589;SDS011;41452;42.780;23.116;2023-05-28T11:32:28;4.50;;;2.70;;
55589;SDS011;41452;42.780;23.116;2023-05-28T11:34:56;4.72;;;3.00;;
55589;SDS011;41452;42.780;23.116;2023-05-28T11:37:23;5.35;;;2.83;;
55589;SDS011;41452;42.780;23.116;2023-05-28T11:39:53;3.42;;;2.53;;
55589;SDS011;41452;42.780;23.116;2023-05-28T11:42:20;6.05;;;4.38;;
55589;SDS011;41452;42.780;23.116;2023-05-28T11:44:47;5.97;;;4.43;;
55589;SDS011;41452;42.780;23.116;2023-05-28T11:47:14;6.70;;;4.68;;
55589;SDS011;41452;42.780;23.116;2023-05-28T11:49:40;7.63;;;4.78;;
55589;SDS011;41452;42.780;23.116;2023-05-28T11:52:13;5.72;;;3.92;;
55589;SDS011;41452;42.780;23.116;2023-05-28T11:54:52;7.35;;;4.38;;
55589;SDS011;41452;42.780;23.116;2023-05-28T11:57:26;6.95;;;4.15;;
55589;SDS011;41452;42.780;23.116;2023-05-28T12:02:26;5.82;;;4.15;;
55589;SDS011;41452;42.780;23.116;2023-05-28T12:04:55;4.97;;;3.17;;
55589;SDS011;41452;42.780;23.116;2023-05-28T12:07:22;4.93;;;3.65;;
55589;SDS011;41452;42.780;23.116;2023-05-28T12:10:00;4.40;;;3.20;;
55589;SDS011;41452;42.780;23.116;2023-05-28T12:12:30;4.00;;;3.05;;
55589;SDS011;41452;42.780;23.116;2023-05-28T12:14:58;5.03;;;3.42;;
55589;SDS011;41452;42.780;23.116;2023-05-28T12:17:26;6.22;;;3.38;;
55589;SDS011;41452;42.780;23.116;2023-05-28T12:19:53;5.55;;;3.28;;
55589;SDS011;41452;42.780;23.116;2023-05-28T12:22:18;5.43;;;3.83;;
55589;SDS011;41452;42.780;23.116;2023-05-28T12:24:50;7.57;;;4.15;;
55589;SDS011;41452;42.780;23.116;2023-05-28T12:29:44;6.90;;;4.03;;
55589;SDS011;41452;42.780;23.116;2023-05-28T12:32:10;5.50;;;3.63;;
55589;SDS011;41452;42.780;23.116;2023-05-28T12:34:35;5.35;;;4.10;;
55589;SDS011;41452;42.780;23.116;2023-05-28T12:37:00;9.57;;;4.20;;
55589;SDS011;41452;42.780;23.116;2023-05-28T12:39:26;8.82;;;3.67;;
55589;SDS011;41452;42.780;23.116;2023-05-28T12:41:52;6.28;;;4.00;;
55589;SDS011;41452;42.780;23.116;2023-05-28T12:44:17;5.40;;;3.63;;
55589;SDS011;41452;42.780;23.116;2023-05-28T12:46:42;10.00;;;4.38;;
55589;SDS011;41452;42.780;23.116;2023-05-28T12:49:08;5.25;;;4.00;;
55589;SDS011;41452;42.780;23.116;2023-05-28T12:51:33;10.65;;;4.30;;
55589;SDS011;41452;42.780;23.116;2023-05-28T12:54:00;6.75;;;4.03;;
55589;SDS011;41452;42.780;23.116;2023-05-28T12:56:26;10.95;;;3.97;;
55589;SDS011;41452;42.780;23.116;2023-05-28T12:58:52;9.57;;;4.20;;
55589;SDS011;41452;42.780;23.116;2023-05-28T13:01:17;5.68;;;4.15;;
55589;SDS011;41452;42.780;23.116;2023-05-28T13:03:44;4.97;;;3.63;;
55589;SDS011;41452;42.780;23.116;2023-05-28T13:06:09;9.52;;;4.25;;
55589;SDS011;41452;42.780;23.116;2023-05-28T13:08:36;5.75;;;3.72;;
55589;SDS011;41452;42.780;23.116;2023-05-28T13:11:02;6.30;;;3.95;;
55589;SDS011;41452;42.780;23.116;2023-05-28T13:13:27;4.93;;;3.83;;
55589;SDS011;41452;42.780;23.116;2023-05-28T13:15:53;4.65;;;3.58;;
55589;SDS011;41452;42.780;23.116;2023-05-28T13:18:18;6.15;;;4.30;;
55589;SDS011;41452;42.780;23.116;2023-05-28T13:20:43;5.50;;;4.25;;
55589;SDS011;41452;42.780;23.116;2023-05-28T13:23:09;7.85;;;5.15;;
55589;SDS011;41452;42.780;23.116;2023-05-28T13:25:34;6.55;;;4.32;;
55589;SDS011;41452;42.780;23.116;2023-05-28T13:28:02;6.60;;;4.88;;
55589;SDS011;41452;42.780;23.116;2023-05-28T13:30:28;6.93;;;4.78;;
55589;SDS011;41452;42.780;23.116;2023-05-28T13:32:53;6.85;;;4.32;;
55589;SDS011;41452;42.780;23.116;2023-05-28T13:35:18;8.30;;;4.93;;
55589;SDS011;41452;42.780;23.116;2023-05-28T13:37:45;5.55;;;4.40;;
55589;SDS011;41452;42.780;23.116;2023-05-28T13:40:11;7.85;;;5.18;;
55589;SDS011;41452;42.780;23.116;2023-05-28T13:42:38;6.93;;;4.85;;
55589;SDS011;41452;42.780;23.116;2023-05-28T13:45:05;9.27;;;5.35;;
55589;SDS011;41452;42.780;23.116;2023-05-28T13:47:31;6.45;;;4.43;;
55589;SDS011;41452;42.780;23.116;2023-05-28T13:49:57;7.82;;;5.28;;
55589;SDS011;41452;42.780;23.116;2023-05-28T13:52:23;7.75;;;5.70;;
55589;SDS011;41452;42.780;23.116;2023-05-28T13:54:48;7.22;;;4.78;;
55589;SDS011;41452;42.780;23.116;2023-05-28T13:57:13;7.35;;;4.78;;
55589;SDS011;41452;42.780;23.116;2023-05-28T13:59:39;6.25;;;5.20;;
55589;SDS011;41452;42.780;23.116;2023-05-28T14:02:04;8.45;;;5.60;;
55589;SDS011;41452;42.780;23.116;2023-05-28T14:04:30;10.57;;;5.45;;
55589;SDS011;41452;42.780;23.116;2023-05-28T14:06:56;8.45;;;4.78;;
55589;SDS011;41452;42.780;23.116;2023-05-28T14:09:21;9.95;;;5.72;;
55589;SDS011;41452;42.780;23.116;2023-05-28T14:11:46;8.63;;;5.35;;
55589;SDS011;41452;42.780;23.116;2023-05-28T14:14:13;8.27;;;5.20;;
55589;SDS011;41452;42.780;23.116;2023-05-28T14:16:38;8.88;;;5.75;;
55589;SDS011;41452;42.780;23.116;2023-05-28T14:19:04;12.13;;;5.57;;
55589;SDS011;41452;42.780;23.116;2023-05-28T14:21:29;8.68;;;5.30;;
55589;SDS011;41452;42.780;23.116;2023-05-28T14:23:55;8.60;;;6.05;;
55589;SDS011;41452;42.780;23.116;2023-05-28T14:26:20;8.60;;;5.70;;
55589;SDS011;41452;42.780;23.116;2023-05-28T14:28:45;7.05;;;5.32;;
55589;SDS011;41452;42.780;23.116;2023-05-28T14:31:11;8.13;;;5.78;;
55589;SDS011;41452;42.780;23.116;2023-05-28T14:33:36;6.75;;;5.25;;
55589;SDS011;41452;42.780;23.116;2023-05-28T14:36:01;8.02;;;5.40;;
55589;SDS011;41452;42.780;23.116;2023-05-28T14:38:27;7.72;;;6.05;;
55589;SDS011;41452;42.780;23.116;2023-05-28T14:40:52;8.13;;;5.90;;
55589;SDS011;41452;42.780;23.116;2023-05-28T14:43:18;6.80;;;5.32;;
55589;SDS011;41452;42.780;23.116;2023-05-28T14:45:43;8.77;;;5.85;;
55589;SDS011;41452;42.780;23.116;2023-05-28T14:48:08;9.35;;;6.78;;
55589;SDS011;41452;42.780;23.116;2023-05-28T14:50:34;7.20;;;5.68;;